^^
Meteo Knjazevac Station Historical Data
Daily Summary for May 2, 2021 Units:  Both    English   Metric
Daily Weekly Monthly Yearly Custom
  High: Low: Average:
Temperature: 74.8 °F /  23.8 °C 55.8 °F /  13.2 °C 61.8 °F /  16.6 °C
Dew Point: 56.4 °F /  13.6 °C 49.5 °F /  9.7 °C 53 °F /  11.7 °C
Humidity: 83% 49% 74%
Wind Speed: 10mph /  16.1km/h - 3.6mph /  5.8km/h
Wind Gust: 20mph /  32.2km/h - -
Wind- - SSW
Pressure: 30.21 in /  1022.9 hPa 30.19 in /  1022.2 hPa -
Precipitation: 0.00 in /  0 mm    
Historical Graphs
 
 
Tabular Data for May 2, 2021
Time Temperature Dew Point Pressure Wind Wind Speed Wind Gust Humidity Rainfall Rate (Hourly) solar Conditions
00:00 56.3 °F /  13.5 °C 49.9 °F /  9.9 °C 30.20in /  1022.6hPa WSW 1mph /  1.6km/h 4mph /  6.4km/h 79% 0.00in /  0mm 0 W/m2
00:10 56.3 °F /  13.5 °C 49.9 °F /  9.9 °C 30.20in /  1022.6hPa WSW 2mph /  3.2km/h 3mph /  4.8km/h 79% 0.00in /  0mm 0 W/m2
00:20 55.9 °F /  13.3 °C 49.5 °F /  9.7 °C 30.20in /  1022.6hPa SW 1mph /  1.6km/h 4mph /  6.4km/h 79% 0.00in /  0mm 0 W/m2
00:30 56.1 °F /  13.4 °C 50 °F /  10 °C 30.20in /  1022.6hPa SSW 1mph /  1.6km/h 6mph /  9.7km/h 80% 0.00in /  0mm 0 W/m2
00:40 55.9 °F /  13.3 °C 49.9 °F /  9.9 °C 30.20in /  1022.6hPa NW 2mph /  3.2km/h 5mph /  8km/h 80% 0.00in /  0mm 0 W/m2
00:50 55.8 °F /  13.2 °C 50 °F /  10 °C 30.20in /  1022.6hPa West 2mph /  3.2km/h 5mph /  8km/h 81% 0.00in /  0mm 0 W/m2
01:00 55.8 °F /  13.2 °C 50 °F /  10 °C 30.20in /  1022.6hPa West 1mph /  1.6km/h 4mph /  6.4km/h 81% 0.00in /  0mm 0 W/m2
01:10 55.9 °F /  13.3 °C 50.2 °F /  10.1 °C 30.20in /  1022.6hPa SSW 2mph /  3.2km/h 5mph /  8km/h 81% 0.00in /  0mm 0 W/m2
01:20 55.8 °F /  13.2 °C 50 °F /  10 °C 30.20in /  1022.6hPa SW 2mph /  3.2km/h 4mph /  6.4km/h 81% 0.00in /  0mm 0 W/m2
01:30 55.8 °F /  13.2 °C 50 °F /  10 °C 30.20in /  1022.6hPa West 2mph /  3.2km/h 5mph /  8km/h 81% 0.00in /  0mm 0 W/m2
01:40 56.1 °F /  13.4 °C 50.4 °F /  10.2 °C 30.19in /  1022.2hPa SW 2mph /  3.2km/h 4mph /  6.4km/h 81% 0.00in /  0mm 0 W/m2
01:50 56.5 °F /  13.6 °C 50.8 °F /  10.4 °C 30.19in /  1022.2hPa WSW 2mph /  3.2km/h 4mph /  6.4km/h 81% 0.00in /  0mm 0 W/m2
02:00 56.8 °F /  13.8 °C 51.1 °F /  10.6 °C 30.20in /  1022.6hPa WSW 1mph /  1.6km/h 3mph /  4.8km/h 81% 0.00in /  0mm 0 W/m2
02:10 56.9 °F /  13.8 °C 51.1 °F /  10.6 °C 30.20in /  1022.6hPa West 2mph /  3.2km/h 4mph /  6.4km/h 81% 0.00in /  0mm 0 W/m2
02:20 57 °F /  13.9 °C 51.2 °F /  10.7 °C 30.19in /  1022.2hPa West 1mph /  1.6km/h 3mph /  4.8km/h 81% 0.00in /  0mm 0 W/m2
02:30 57.4 °F /  14.1 °C 51.6 °F /  10.9 °C 30.19in /  1022.2hPa Calm   4mph /  6.4km/h 81% 0.00in /  0mm 0 W/m2
02:40 57.6 °F /  14.2 °C 51.4 °F /  10.8 °C 30.19in /  1022.2hPa NNE 2mph /  3.2km/h 5mph /  8km/h 80% 0.00in /  0mm 0 W/m2
02:50 57.7 °F /  14.3 °C 51.6 °F /  10.9 °C 30.19in /  1022.2hPa NE 3mph /  4.8km/h 5mph /  8km/h 80% 0.00in /  0mm 0 W/m2
03:00 57.9 °F /  14.4 °C 51.8 °F /  11 °C 30.19in /  1022.2hPa Calm   4mph /  6.4km/h 80% 0.00in /  0mm 0 W/m2
03:10 57.7 °F /  14.3 °C 51.9 °F /  11.1 °C 30.19in /  1022.2hPa Calm   3mph /  4.8km/h 81% 0.00in /  0mm 0 W/m2
03:20 57.8 °F /  14.3 °C 52 °F /  11.1 °C 30.19in /  1022.2hPa NNE 2mph /  3.2km/h 3mph /  4.8km/h 81% 0.00in /  0mm 0 W/m2
03:30 57.9 °F /  14.4 °C 52.1 °F /  11.2 °C 30.19in /  1022.2hPa Calm   2mph /  3.2km/h 81% 0.00in /  0mm 0 W/m2
03:40 58.1 °F /  14.5 °C 52.3 °F /  11.3 °C 30.19in /  1022.2hPa ENE 2mph /  3.2km/h 3mph /  4.8km/h 81% 0.00in /  0mm 0 W/m2
03:50 58.1 °F /  14.5 °C 52.3 °F /  11.3 °C 30.19in /  1022.2hPa NNE 2mph /  3.2km/h 3mph /  4.8km/h 81% 0.00in /  0mm 0 W/m2
04:00 58.3 °F /  14.6 °C 52.1 °F /  11.2 °C 30.19in /  1022.2hPa Calm   3mph /  4.8km/h 80% 0.00in /  0mm 0 W/m2
04:10 58.3 °F /  14.6 °C 52.5 °F /  11.4 °C 30.19in /  1022.2hPa Calm   2mph /  3.2km/h 81% 0.00in /  0mm 0 W/m2
04:20 58.5 °F /  14.7 °C 52.6 °F /  11.4 °C 30.19in /  1022.2hPa Calm   2mph /  3.2km/h 81% 0.00in /  0mm 0 W/m2
04:30 58.3 °F /  14.6 °C 52.8 °F /  11.6 °C 30.19in /  1022.2hPa North 1mph /  1.6km/h 3mph /  4.8km/h 82% 0.00in /  0mm 0 W/m2
04:40 58.1 °F /  14.5 °C 52.3 °F /  11.3 °C 30.19in /  1022.2hPa Calm   6mph /  9.7km/h 81% 0.00in /  0mm 0 W/m2
04:50 58.3 °F /  14.6 °C 52.5 °F /  11.4 °C 30.19in /  1022.2hPa North 2mph /  3.2km/h 2mph /  3.2km/h 81% 0.00in /  0mm 0 W/m2
05:00 58.5 °F /  14.7 °C 52.3 °F /  11.3 °C 30.19in /  1022.2hPa WNW 2mph /  3.2km/h 9mph /  14.5km/h 80% 0.00in /  0mm 0 W/m2
05:10 58.6 °F /  14.8 °C 52.5 °F /  11.4 °C 30.19in /  1022.2hPa West 1mph /  1.6km/h 9mph /  14.5km/h 80% 0.00in /  0mm 0 W/m2
05:20 58.5 °F /  14.7 °C 52.6 °F /  11.4 °C 30.19in /  1022.2hPa Calm   5mph /  8km/h 81% 0.00in /  0mm 0 W/m2
05:30 58.3 °F /  14.6 °C 52.5 °F /  11.4 °C 30.19in /  1022.2hPa Calm   3mph /  4.8km/h 81% 0.00in /  0mm 0 W/m2
05:40 58.2 °F /  14.6 °C 52.4 °F /  11.3 °C 30.20in /  1022.6hPa Calm   2mph /  3.2km/h 81% 0.00in /  0mm 0 W/m2
05:50 58.1 °F /  14.5 °C 52.3 °F /  11.3 °C 30.19in /  1022.2hPa Calm   2mph /  3.2km/h 81% 0.00in /  0mm 0 W/m2
06:00 58 °F /  14.4 °C 52.2 °F /  11.2 °C 30.20in /  1022.6hPa NE 2mph /  3.2km/h 5mph /  8km/h 81% 0.00in /  0mm 5 W/m2
06:10 57.9 °F /  14.4 °C 52.1 °F /  11.2 °C 30.20in /  1022.6hPa NE 2mph /  3.2km/h 4mph /  6.4km/h 81% 0.00in /  0mm 12 W/m2
06:20 57.7 °F /  14.3 °C 51.9 °F /  11.1 °C 30.20in /  1022.6hPa ENE 2mph /  3.2km/h 5mph /  8km/h 81% 0.00in /  0mm 20 W/m2
06:30 57.6 °F /  14.2 °C 51.8 °F /  11 °C 30.20in /  1022.6hPa ENE 2mph /  3.2km/h 4mph /  6.4km/h 81% 0.00in /  0mm 27 W/m2
06:40 57.4 °F /  14.1 °C 51.6 °F /  10.9 °C 30.20in /  1022.6hPa North 1mph /  1.6km/h 3mph /  4.8km/h 81% 0.00in /  0mm 35 W/m2
06:50 57.2 °F /  14 °C 52.1 °F /  11.2 °C 30.21in /  1022.9hPa North 1mph /  1.6km/h 2mph /  3.2km/h 83% 0.00in /  0mm 50 W/m2
07:00 57.2 °F /  14 °C 52.1 °F /  11.2 °C 30.21in /  1022.9hPa NE 1mph /  1.6km/h 4mph /  6.4km/h 83% 0.00in /  0mm 58 W/m2
07:10 57.2 °F /  14 °C 52.1 °F /  11.2 °C 30.21in /  1022.9hPa SSE 1mph /  1.6km/h 4mph /  6.4km/h 83% 0.00in /  0mm 59 W/m2
07:20 57.2 °F /  14 °C 52.1 °F /  11.2 °C 30.21in /  1022.9hPa Calm   2mph /  3.2km/h 83% 0.00in /  0mm 132 W/m2
07:30 57.2 °F /  14 °C 52.1 °F /  11.2 °C 30.21in /  1022.9hPa SE 1mph /  1.6km/h 4mph /  6.4km/h 83% 0.00in /  0mm 88 W/m2
07:40 57.6 °F /  14.2 °C 52.4 °F /  11.3 °C 30.21in /  1022.9hPa South 1mph /  1.6km/h 4mph /  6.4km/h 83% 0.00in /  0mm 240 W/m2
07:50 58.2 °F /  14.6 °C 52.7 °F /  11.5 °C 30.21in /  1022.9hPa South 2mph /  3.2km/h 6mph /  9.7km/h 82% 0.00in /  0mm 296 W/m2
08:00 59.1 °F /  15.1 °C 52.9 °F /  11.6 °C 30.21in /  1022.9hPa SW 2mph /  3.2km/h 5mph /  8km/h 80% 0.00in /  0mm 321 W/m2
08:10 59.9 °F /  15.5 °C 53.7 °F /  12.1 °C 30.21in /  1022.9hPa WSW 2mph /  3.2km/h 5mph /  8km/h 80% 0.00in /  0mm 357 W/m2
08:20 60.5 °F /  15.8 °C 53.6 °F /  12 °C 30.21in /  1022.9hPa SW 3mph /  4.8km/h 9mph /  14.5km/h 78% 0.00in /  0mm 172 W/m2
08:30 61 °F /  16.1 °C 53.8 °F /  12.1 °C 30.21in /  1022.9hPa WSW 5mph /  8km/h 7mph /  11.3km/h 77% 0.00in /  0mm 209 W/m2
08:40 61.6 °F /  16.4 °C 54.3 °F /  12.4 °C 30.21in /  1022.9hPa WSW 3mph /  4.8km/h 8mph /  12.9km/h 77% 0.00in /  0mm 201 W/m2
08:50 62.1 °F /  16.7 °C 54.1 °F /  12.3 °C 30.21in /  1022.9hPa WSW 5mph /  8km/h 10mph /  16.1km/h 75% 0.00in /  0mm 220 W/m2
09:00 62.6 °F /  17 °C 53.8 °F /  12.1 °C 30.21in /  1022.9hPa WSW 5mph /  8km/h 10mph /  16.1km/h 73% 0.00in /  0mm 262 W/m2
09:10 63.2 °F /  17.3 °C 54.4 °F /  12.4 °C 30.21in /  1022.9hPa SW 5mph /  8km/h 8mph /  12.9km/h 73% 0.00in /  0mm 496 W/m2
09:20 64.1 °F /  17.8 °C 54.1 °F /  12.3 °C 30.21in /  1022.9hPa WSW 5mph /  8km/h 9mph /  14.5km/h 70% 0.00in /  0mm 359 W/m2
09:30 64.6 °F /  18.1 °C 54.2 °F /  12.3 °C 30.21in /  1022.9hPa SW 6mph /  9.7km/h 9mph /  14.5km/h 69% 0.00in /  0mm 318 W/m2
09:40 64.9 °F /  18.3 °C 54.5 °F /  12.5 °C 30.21in /  1022.9hPa WSW 6mph /  9.7km/h 12mph /  19.3km/h 69% 0.00in /  0mm 290 W/m2
09:50 65.1 °F /  18.4 °C 54.3 °F /  12.4 °C 30.21in /  1022.9hPa WSW 3mph /  4.8km/h 8mph /  12.9km/h 68% 0.00in /  0mm 270 W/m2
10:00 65.5 °F /  18.6 °C 54.2 °F /  12.3 °C 30.21in /  1022.9hPa SW 8mph /  12.9km/h 14mph /  22.5km/h 67% 0.00in /  0mm 266 W/m2
10:10 65.7 °F /  18.7 °C 54.8 °F /  12.7 °C 30.21in /  1022.9hPa SW 7mph /  11.3km/h 13mph /  20.9km/h 68% 0.00in /  0mm 275 W/m2
10:20 65.8 °F /  18.8 °C 54.6 °F /  12.6 °C 30.21in /  1022.9hPa SW 10mph /  16.1km/h 14mph /  22.5km/h 67% 0.00in /  0mm 282 W/m2
10:30 66.2 °F /  19 °C 54.9 °F /  12.7 °C 30.21in /  1022.9hPa SW 7mph /  11.3km/h 13mph /  20.9km/h 67% 0.00in /  0mm 299 W/m2
10:40 66.6 °F /  19.2 °C 55.3 °F /  12.9 °C 30.21in /  1022.9hPa WSW 6mph /  9.7km/h 13mph /  20.9km/h 67% 0.00in /  0mm 365 W/m2
10:50 66.9 °F /  19.4 °C 55.2 °F /  12.9 °C 30.21in /  1022.9hPa WSW 9mph /  14.5km/h 14mph /  22.5km/h 66% 0.00in /  0mm 335 W/m2
11:00 67.8 °F /  19.9 °C 55.6 °F /  13.1 °C 30.21in /  1022.9hPa SW 10mph /  16.1km/h 15mph /  24.1km/h 65% 0.00in /  0mm 465 W/m2
11:10 69 °F /  20.6 °C 56.3 °F /  13.5 °C 30.21in /  1022.9hPa SW 9mph /  14.5km/h 15mph /  24.1km/h 64% 0.00in /  0mm 778 W/m2
11:20 69.9 °F /  21.1 °C 56.3 °F /  13.5 °C 30.20in /  1022.6hPa SW 9mph /  14.5km/h 16mph /  25.7km/h 62% 0.00in /  0mm 790 W/m2
11:30 70.5 °F /  21.4 °C 56 °F /  13.3 °C 30.20in /  1022.6hPa WSW 8mph /  12.9km/h 15mph /  24.1km/h 60% 0.00in /  0mm 207 W/m2
11:40 70.6 °F /  21.4 °C 56 °F /  13.3 °C 30.20in /  1022.6hPa WNW 5mph /  8km/h 14mph /  22.5km/h 60% 0.00in /  0mm 809 W/m2
11:50 71.6 °F /  22 °C 55.6 °F /  13.1 °C 30.20in /  1022.6hPa WNW 9mph /  14.5km/h 16mph /  25.7km/h 57% 0.00in /  0mm 312 W/m2
12:00 72 °F /  22.2 °C 56.4 °F /  13.6 °C 30.20in /  1022.6hPa West 8mph /  12.9km/h 18mph /  29km/h 58% 0.00in /  0mm 359 W/m2
12:10 72.9 °F /  22.7 °C 55.7 °F /  13.2 °C 30.20in /  1022.6hPa West 9mph /  14.5km/h 18mph /  29km/h 55% 0.00in /  0mm 313 W/m2
12:20 73.4 °F /  23 °C 55.7 °F /  13.2 °C 30.20in /  1022.6hPa WNW 6mph /  9.7km/h 17mph /  27.4km/h 54% 0.00in /  0mm 828 W/m2
12:30 73.8 °F /  23.2 °C 56.1 °F /  13.4 °C 30.20in /  1022.6hPa West 7mph /  11.3km/h 20mph /  32.2km/h 54% 0.00in /  0mm 828 W/m2
12:40 73.8 °F /  23.2 °C 56.1 °F /  13.4 °C 30.20in /  1022.6hPa West 10mph /  16.1km/h 20mph /  32.2km/h 54% 0.00in /  0mm 827 W/m2
12:50 74.7 °F /  23.7 °C 56.4 °F /  13.6 °C 30.20in /  1022.6hPa WSW 9mph /  14.5km/h 18mph /  29km/h 53% 0.00in /  0mm 825 W/m2
13:00 73.3 °F /  22.9 °C 55.2 °F /  12.9 °C 30.19in /  1022.2hPa WSW 10mph /  16.1km/h 20mph /  32.2km/h 53% 0.00in /  0mm 820 W/m2
13:10 73.2 °F /  22.9 °C 55.1 °F /  12.8 °C 30.20in /  1022.6hPa WSW 8mph /  12.9km/h 17mph /  27.4km/h 53% 0.00in /  0mm 543 W/m2
13:20 73.2 °F /  22.9 °C 55.1 °F /  12.8 °C 30.20in /  1022.6hPa West 9mph /  14.5km/h 20mph /  32.2km/h 53% 0.00in /  0mm 403 W/m2
13:30 74 °F /  23.3 °C 53.6 °F /  12 °C 30.20in /  1022.6hPa West 8mph /  12.9km/h 17mph /  27.4km/h 49% 0.00in /  0mm 798 W/m2
13:40 74.8 °F /  23.8 °C 54.9 °F /  12.7 °C 30.20in /  1022.6hPa NW 10mph /  16.1km/h 20mph /  32.2km/h 50% 0.00in /  0mm 467 W/m2
Knjazevac, Serbia
Compliments of Weather Underground - 2 mb